createdAt,value
2019-05-17T00:00:57.348Z,10.70
2019-05-17T00:03:47.082Z,10.80
2019-05-17T00:06:36.935Z,10.80
2019-05-17T00:09:26.792Z,10.80
2019-05-17T00:12:16.620Z,10.70
2019-05-17T00:15:07.128Z,10.70
2019-05-17T00:17:57.054Z,10.60
2019-05-17T00:20:46.570Z,10.60
2019-05-17T00:23:37.529Z,10.60
2019-05-17T00:26:26.944Z,10.60
2019-05-17T00:29:17.290Z,10.60
2019-05-17T00:32:07.053Z,10.60
2019-05-17T00:34:56.483Z,10.60
2019-05-17T00:37:46.522Z,10.50
2019-05-17T00:40:36.556Z,10.50
2019-05-17T00:43:26.315Z,10.50
2019-05-17T00:46:17.224Z,10.50
2019-05-17T00:49:06.485Z,10.50
2019-05-17T00:51:56.715Z,10.50
2019-05-17T00:54:46.908Z,10.50
2019-05-17T00:57:36.841Z,10.50
2019-05-17T01:00:27.817Z,10.50
2019-05-17T01:03:17.652Z,10.50
2019-05-17T01:06:07.152Z,10.50
2019-05-17T01:09:01.888Z,10.50
2019-05-17T01:11:47.452Z,10.50
2019-05-17T01:14:37.219Z,10.50
2019-05-17T01:17:27.087Z,10.50
2019-05-17T01:20:17.421Z,10.50
2019-05-17T01:23:07.528Z,10.40
2019-05-17T01:25:57.669Z,10.50
2019-05-17T01:28:46.830Z,10.50
2019-05-17T01:31:37.299Z,10.50
2019-05-17T01:34:27.370Z,10.50
2019-05-17T01:37:17.232Z,10.50
2019-05-17T01:40:06.748Z,10.50
2019-05-17T01:42:58.020Z,10.50
2019-05-17T01:45:47.992Z,10.50
2019-05-17T01:48:37.709Z,10.50
2019-05-17T01:51:28.199Z,10.50
2019-05-17T01:54:17.711Z,10.50
2019-05-17T01:57:07.368Z,10.50
2019-05-17T01:59:57.119Z,10.50
2019-05-17T02:02:47.238Z,10.40
2019-05-17T02:05:37.207Z,10.50
2019-05-17T02:08:26.853Z,10.40
2019-05-17T02:11:18.363Z,10.50
2019-05-17T02:14:07.039Z,10.50
2019-05-17T02:16:57.318Z,10.50
2019-05-17T02:19:46.627Z,10.50
2019-05-17T02:22:36.808Z,10.50
2019-05-17T02:25:27.264Z,10.40
2019-05-17T02:28:16.369Z,10.50
2019-05-17T02:31:06.055Z,10.40
2019-05-17T02:33:55.123Z,10.40
2019-05-17T02:36:44.498Z,10.40
2019-05-17T02:39:50.589Z,10.40
2019-05-17T02:42:23.981Z,10.40
2019-05-17T02:45:13.836Z,10.40
2019-05-17T02:48:04.105Z,10.40
2019-05-17T02:50:53.522Z,10.40
2019-05-17T02:53:43.097Z,10.40
2019-05-17T02:56:32.748Z,10.40
2019-05-17T02:59:23.199Z,10.40
2019-05-17T03:02:12.963Z,10.40
2019-05-17T03:05:04.075Z,10.40
2019-05-17T03:07:53.024Z,10.40
2019-05-17T03:10:43.320Z,10.40
2019-05-17T03:13:33.195Z,10.40
2019-05-17T03:16:23.568Z,10.40
2019-05-17T03:19:13.376Z,10.40
2019-05-17T03:22:07.117Z,10.40
2019-05-17T03:24:53.450Z,10.40
2019-05-17T03:27:42.989Z,10.40
2019-05-17T03:30:36.616Z,10.40
2019-05-17T03:33:26.560Z,10.30
2019-05-17T03:36:17.077Z,10.40
2019-05-17T03:39:05.616Z,10.30
2019-05-17T03:41:54.434Z,10.30
2019-05-17T03:44:43.888Z,10.30
2019-05-17T03:47:33.621Z,10.30
2019-05-17T03:50:23.395Z,10.30
2019-05-17T03:53:13.125Z,10.40
2019-05-17T03:56:03.135Z,10.40
2019-05-17T03:58:53.188Z,10.40
2019-05-17T04:01:43.639Z,10.40
2019-05-17T04:04:33.482Z,10.40
2019-05-17T04:07:23.619Z,10.30
2019-05-17T04:10:15.082Z,10.40
2019-05-17T04:13:04.725Z,10.40
2019-05-17T04:15:53.642Z,10.40
2019-05-17T04:18:43.733Z,10.40
2019-05-17T04:21:34.359Z,10.40
2019-05-17T04:24:23.837Z,10.50
2019-05-17T04:27:13.720Z,10.50
2019-05-17T04:30:03.638Z,10.60
2019-05-17T04:32:53.013Z,10.60
2019-05-17T04:35:43.198Z,10.60
2019-05-17T04:38:33.332Z,10.60
2019-05-17T04:41:39.458Z,10.60
2019-05-17T04:44:13.303Z,10.60
2019-05-17T04:47:03.283Z,10.70
2019-05-17T04:49:53.700Z,10.70
2019-05-17T04:52:43.727Z,10.70
2019-05-17T04:55:34.371Z,10.70
2019-05-17T04:58:23.695Z,10.80
2019-05-17T05:01:13.486Z,10.80
2019-05-17T05:04:03.858Z,10.80
2019-05-17T05:06:53.056Z,10.90
2019-05-17T05:09:43.220Z,10.90
2019-05-17T05:12:33.645Z,10.90
2019-05-17T05:15:43.947Z,11.00
2019-05-17T05:18:32.840Z,11.00
2019-05-17T05:21:23.086Z,11.00
2019-05-17T05:24:12.100Z,11.10
2019-05-17T05:27:02.571Z,11.10
2019-05-17T05:29:52.189Z,11.10
2019-05-17T05:32:42.898Z,11.20
2019-05-17T05:35:32.510Z,11.30
2019-05-17T05:38:21.976Z,11.30
2019-05-17T05:41:12.228Z,11.40
2019-05-17T05:44:02.029Z,11.40
2019-05-17T05:46:51.675Z,11.50
2019-05-17T05:49:42.583Z,11.50
2019-05-17T05:52:32.439Z,11.50
2019-05-17T05:55:23.370Z,11.50
2019-05-17T05:58:12.419Z,11.50
2019-05-17T06:01:02.530Z,11.60
2019-05-17T06:03:52.082Z,11.60
2019-05-17T06:06:41.758Z,11.70
2019-05-17T06:09:31.798Z,11.70
2019-05-17T06:12:27.676Z,11.70
2019-05-17T06:15:12.623Z,11.80
2019-05-17T06:18:02.997Z,11.80
2019-05-17T06:20:52.557Z,11.90
2019-05-17T06:23:42.556Z,11.90
2019-05-17T06:26:13.282Z,12.00
2019-05-17T06:28:43.639Z,12.00
2019-05-17T06:31:33.287Z,12.10
2019-05-17T06:34:23.511Z,12.10
2019-05-17T06:37:13.986Z,12.20
2019-05-17T06:40:03.458Z,12.20
2019-05-17T06:42:52.629Z,12.30
2019-05-17T06:45:42.300Z,12.30
2019-05-17T06:48:32.034Z,12.30
2019-05-17T06:51:22.052Z,12.30
2019-05-17T06:54:12.072Z,12.30
2019-05-17T06:57:03.346Z,12.30
2019-05-17T06:59:51.716Z,12.40
2019-05-17T07:02:41.178Z,12.40
2019-05-17T07:05:33.038Z,12.40
2019-05-17T07:08:22.486Z,12.50
2019-05-17T07:11:12.162Z,12.50
2019-05-17T07:14:01.407Z,12.50
2019-05-17T07:16:39.639Z,12.50
2019-05-17T07:19:10.555Z,12.50
2019-05-17T07:21:40.800Z,12.50
2019-05-17T07:24:10.890Z,12.50
2019-05-17T07:26:41.064Z,12.50
2019-05-17T07:29:11.482Z,12.50
2019-05-17T07:31:42.232Z,12.60
2019-05-17T07:34:12.518Z,12.60
2019-05-17T07:36:42.926Z,12.60
2019-05-17T07:39:13.576Z,12.50
2019-05-17T07:42:02.504Z,12.60
2019-05-17T07:44:52.629Z,12.50
2019-05-17T07:47:42.263Z,12.50
2019-05-17T07:50:31.539Z,12.50
2019-05-17T07:53:20.464Z,12.50
2019-05-17T07:56:10.418Z,12.50
2019-05-17T07:59:00.066Z,12.50
2019-05-17T08:01:50.293Z,12.50
2019-05-17T08:04:40.639Z,12.60
2019-05-17T08:07:30.193Z,12.70
2019-05-17T08:10:20.774Z,12.80
2019-05-17T08:13:25.263Z,12.80
2019-05-17T08:16:00.226Z,12.80
2019-05-17T08:18:50.529Z,12.70
2019-05-17T08:21:40.206Z,12.70
2019-05-17T08:24:30.371Z,12.80
2019-05-17T08:27:20.128Z,12.80
2019-05-17T08:30:11.218Z,12.90
2019-05-17T08:33:00.964Z,13.00
2019-05-17T08:35:50.131Z,13.10
2019-05-17T08:38:39.501Z,13.20
2019-05-17T08:41:30.925Z,13.30
2019-05-17T08:44:19.858Z,13.40
2019-05-17T08:47:10.257Z,13.40
2019-05-17T08:50:00.651Z,13.40
2019-05-17T08:52:52.428Z,13.30
2019-05-17T08:55:41.318Z,13.30
2019-05-17T08:58:30.850Z,13.30
2019-05-17T09:01:19.798Z,13.30
2019-05-17T09:04:09.725Z,13.30
2019-05-17T09:07:00.710Z,13.30
2019-05-17T09:09:50.291Z,13.40
2019-05-17T09:12:41.040Z,13.40
2019-05-17T09:15:29.904Z,13.50
2019-05-17T09:18:20.599Z,13.50
2019-05-17T09:21:09.885Z,13.50
2019-05-17T09:23:59.699Z,13.50
2019-05-17T09:26:49.321Z,13.50
2019-05-17T09:29:40.354Z,13.60
2019-05-17T09:32:29.821Z,13.70
2019-05-17T09:35:20.767Z,13.70
2019-05-17T09:38:10.265Z,13.80
2019-05-17T09:41:00.009Z,13.80
2019-05-17T09:43:50.051Z,13.80
2019-05-17T09:46:20.202Z,13.80
2019-05-17T09:48:51.240Z,13.70
2019-05-17T09:51:21.593Z,13.60
2019-05-17T09:53:51.829Z,13.50
2019-05-17T09:56:22.469Z,13.60
2019-05-17T09:58:52.888Z,13.60
2019-05-17T10:01:42.637Z,13.60
2019-05-17T10:04:32.283Z,13.60
2019-05-17T10:07:22.039Z,13.60
2019-05-17T10:10:11.104Z,13.60
2019-05-17T10:13:00.637Z,13.60
2019-05-17T10:15:50.157Z,13.70
2019-05-17T10:18:40.102Z,13.70
2019-05-17T10:21:30.399Z,13.70
2019-05-17T10:24:24.023Z,13.70
2019-05-17T10:27:14.372Z,13.70
2019-05-17T10:30:02.019Z,13.70
2019-05-17T10:32:51.442Z,13.70
2019-05-17T10:35:40.986Z,13.60
2019-05-17T10:38:30.597Z,13.50
2019-05-17T10:41:19.947Z,13.50
2019-05-17T10:44:09.504Z,13.40
2019-05-17T10:46:57.959Z,13.40
2019-05-17T10:49:49.579Z,13.40
2019-05-17T10:52:40.526Z,13.40
2019-05-17T10:55:30.221Z,13.30
2019-05-17T10:58:21.015Z,13.40
2019-05-17T11:01:10.220Z,13.30
2019-05-17T11:03:59.827Z,13.30
2019-05-17T11:06:50.086Z,13.30
2019-05-17T11:09:40.702Z,13.30
2019-05-17T11:12:30.546Z,13.40
2019-05-17T11:15:20.051Z,13.40
2019-05-17T11:18:09.113Z,13.50
2019-05-17T11:20:58.759Z,13.60
2019-05-17T11:23:47.866Z,13.60
2019-05-17T11:26:36.882Z,13.50
2019-05-17T11:29:25.855Z,13.50
2019-05-17T11:32:15.542Z,13.50
2019-05-17T11:35:04.884Z,13.40
2019-05-17T11:37:54.546Z,13.30
2019-05-17T11:40:43.595Z,13.20
2019-05-17T11:43:14.025Z,13.10
2019-05-17T11:45:44.439Z,13.10
2019-05-17T11:48:14.795Z,13.00
2019-05-17T11:50:45.313Z,13.00
2019-05-17T11:53:15.594Z,12.90
2019-05-17T11:55:45.734Z,12.90
2019-05-17T11:58:35.603Z,12.90
2019-05-17T12:01:24.911Z,12.90
2019-05-17T12:04:14.475Z,13.00
2019-05-17T12:06:45.464Z,13.10
2019-05-17T12:09:15.865Z,13.20
2019-05-17T12:11:46.261Z,13.20
2019-05-17T12:14:16.676Z,13.30
2019-05-17T12:16:46.832Z,13.30
2019-05-17T12:19:17.247Z,13.30
2019-05-17T12:21:47.529Z,13.20
2019-05-17T12:24:18.162Z,13.10
2019-05-17T12:26:48.443Z,13.10
2019-05-17T12:29:18.678Z,13.10
2019-05-17T12:31:48.975Z,13.10
2019-05-17T12:34:19.064Z,13.10
2019-05-17T12:37:08.261Z,13.10
2019-05-17T12:39:57.579Z,13.20
2019-05-17T12:42:46.665Z,13.20
2019-05-17T12:45:36.367Z,13.20
2019-05-17T12:48:25.046Z,13.20
2019-05-17T12:51:14.154Z,13.30
2019-05-17T12:54:03.625Z,13.20
2019-05-17T12:56:52.621Z,13.10
2019-05-17T12:59:41.914Z,13.20
2019-05-17T13:02:30.781Z,13.20
2019-05-17T13:05:01.036Z,13.20
2019-05-17T13:07:50.151Z,13.20
2019-05-17T13:10:39.716Z,13.20
2019-05-17T13:13:28.553Z,13.20
2019-05-17T13:16:19.149Z,13.20
2019-05-17T13:19:09.253Z,13.20
2019-05-17T13:21:59.028Z,13.10
2019-05-17T13:24:48.165Z,13.10
2019-05-17T13:27:39.344Z,13.20
2019-05-17T13:30:29.391Z,13.20
2019-05-17T13:33:18.486Z,13.30
2019-05-17T13:36:08.520Z,13.30
2019-05-17T13:38:57.714Z,13.40
2019-05-17T13:41:46.886Z,13.40
2019-05-17T13:44:36.682Z,13.40
2019-05-17T13:47:25.915Z,13.40
2019-05-17T13:50:16.770Z,13.50
2019-05-17T13:53:05.962Z,13.50
2019-05-17T13:55:55.557Z,13.40
2019-05-17T13:58:44.996Z,13.50
2019-05-17T14:01:34.272Z,13.70
2019-05-17T14:04:23.231Z,13.70
2019-05-17T14:07:12.308Z,13.80
2019-05-17T14:10:03.265Z,13.80
2019-05-17T14:12:52.317Z,13.80
2019-05-17T14:15:41.785Z,13.90
2019-05-17T14:18:30.975Z,13.90
2019-05-17T14:21:20.824Z,14.00
2019-05-17T14:24:09.905Z,14.00
2019-05-17T14:27:01.861Z,14.10
2019-05-17T14:29:51.601Z,14.20
2019-05-17T14:32:41.202Z,14.30
2019-05-17T14:35:30.510Z,14.40
2019-05-17T14:38:19.438Z,14.50
2019-05-17T14:41:07.842Z,14.60
2019-05-17T14:43:40.396Z,14.60
2019-05-17T14:46:10.857Z,14.50
2019-05-17T14:48:41.306Z,14.40
2019-05-17T14:51:11.734Z,14.30
2019-05-17T14:53:42.283Z,14.20
2019-05-17T14:56:12.850Z,14.10
2019-05-17T14:58:43.116Z,13.90
2019-05-17T15:01:13.591Z,13.90
2019-05-17T15:03:44.014Z,13.80
2019-05-17T15:06:14.268Z,13.70
2019-05-17T15:08:44.594Z,13.70
2019-05-17T15:11:15.108Z,13.70
2019-05-17T15:13:45.779Z,13.70
2019-05-17T15:16:15.961Z,13.70
2019-05-17T15:18:46.244Z,13.70
2019-05-17T15:21:16.516Z,13.60
2019-05-17T15:23:46.940Z,13.40
2019-05-17T15:26:17.583Z,13.30
2019-05-17T15:28:47.815Z,13.30
2019-05-17T15:31:17.935Z,13.30
2019-05-17T15:33:48.393Z,13.30
2019-05-17T15:36:18.895Z,13.30
2019-05-17T15:38:49.261Z,13.30
2019-05-17T15:41:19.656Z,13.40
2019-05-17T15:43:49.898Z,13.30
2019-05-17T15:46:20.564Z,13.40
2019-05-17T15:48:51.048Z,13.40
2019-05-17T15:51:21.547Z,13.40
2019-05-17T15:53:51.793Z,13.50
2019-05-17T15:56:22.128Z,13.50
2019-05-17T15:58:52.800Z,13.50
2019-05-17T16:01:23.298Z,13.50
2019-05-17T16:03:53.451Z,13.50
2019-05-17T16:06:23.698Z,13.50
2019-05-17T16:08:54.494Z,13.40
2019-05-17T16:11:24.992Z,13.40
2019-05-17T16:13:55.490Z,13.40
2019-05-17T16:16:25.659Z,13.40
2019-05-17T16:18:56.180Z,13.50
2019-05-17T16:21:26.281Z,13.50
2019-05-17T16:23:56.615Z,13.50
2019-05-17T16:26:26.814Z,13.40
2019-05-17T16:28:57.153Z,13.30
2019-05-17T16:31:27.373Z,13.30
2019-05-17T16:33:57.914Z,13.30
2019-05-17T16:36:28.502Z,13.30
2019-05-17T16:38:58.781Z,13.40
2019-05-17T16:41:29.337Z,13.40
2019-05-17T16:43:59.995Z,13.40
2019-05-17T16:46:33.147Z,13.50
2019-05-17T16:49:03.819Z,13.50
2019-05-17T16:51:34.204Z,13.60
2019-05-17T16:54:04.940Z,13.60
2019-05-17T16:56:35.652Z,13.70
2019-05-17T16:59:05.959Z,13.70
2019-05-17T17:01:36.149Z,13.70
2019-05-17T17:04:06.387Z,13.70
2019-05-17T17:06:37.022Z,13.70
2019-05-17T17:09:07.423Z,13.70
2019-05-17T17:11:37.944Z,13.60
2019-05-17T17:14:08.130Z,13.70
2019-05-17T17:16:38.512Z,13.60
2019-05-17T17:19:08.926Z,13.60
2019-05-17T17:21:39.572Z,13.60
2019-05-17T17:24:09.890Z,13.60
2019-05-17T17:26:40.360Z,13.60
2019-05-17T17:29:10.894Z,13.60
2019-05-17T17:31:41.412Z,13.60
2019-05-17T17:34:11.686Z,13.60
2019-05-17T17:36:41.888Z,13.60
2019-05-17T17:39:31.066Z,13.60
2019-05-17T17:42:20.390Z,13.60
2019-05-17T17:45:15.466Z,13.50
2019-05-17T17:48:05.248Z,13.60
2019-05-17T17:50:54.654Z,13.50
2019-05-17T17:53:43.825Z,13.50
2019-05-17T17:56:33.091Z,13.50
2019-05-17T17:59:22.509Z,13.60
2019-05-17T18:02:11.116Z,13.60
2019-05-17T18:05:02.514Z,13.60
2019-05-17T18:07:51.890Z,13.70
2019-05-17T18:10:40.450Z,13.70
2019-05-17T18:13:30.335Z,13.70
2019-05-17T18:16:19.625Z,13.70
2019-05-17T18:19:08.905Z,13.70
2019-05-17T18:21:39.314Z,13.70
2019-05-17T18:24:09.532Z,13.70
2019-05-17T18:26:39.922Z,13.70
2019-05-17T18:29:10.275Z,13.70
2019-05-17T18:31:40.558Z,13.70
2019-05-17T18:34:10.647Z,13.70
2019-05-17T18:36:40.927Z,13.70
2019-05-17T18:39:11.447Z,13.70
2019-05-17T18:41:42.040Z,13.70
2019-05-17T18:44:25.705Z,13.70
2019-05-17T18:46:44.289Z,13.70
2019-05-17T18:49:14.804Z,13.60
2019-05-17T18:51:45.161Z,13.60
2019-05-17T18:54:17.122Z,13.60
2019-05-17T18:56:47.542Z,13.60
2019-05-17T18:59:17.996Z,13.60
2019-05-17T19:01:48.742Z,13.60
2019-05-17T19:04:19.201Z,13.60
2019-05-17T19:06:49.599Z,13.60
2019-05-17T19:09:20.111Z,13.60
2019-05-17T19:11:50.357Z,13.50
2019-05-17T19:14:20.592Z,13.50
2019-05-17T19:16:50.590Z,13.60
2019-05-17T19:19:21.077Z,13.60
2019-05-17T19:21:51.354Z,13.60
2019-05-17T19:24:21.612Z,13.60
2019-05-17T19:27:10.602Z,13.60
2019-05-17T19:29:59.606Z,13.60
2019-05-17T19:32:30.116Z,13.60
2019-05-17T19:35:00.642Z,13.60
2019-05-17T19:37:30.900Z,13.60
2019-05-17T19:40:01.437Z,13.60
2019-05-17T19:42:31.633Z,13.60
2019-05-17T19:45:02.215Z,13.50
2019-05-17T19:47:32.713Z,13.50
2019-05-17T19:50:03.179Z,13.50
2019-05-17T19:52:33.708Z,13.50
2019-05-17T19:55:04.453Z,13.50
2019-05-17T19:57:34.734Z,13.50
2019-05-17T20:00:05.399Z,13.60
2019-05-17T20:02:38.657Z,13.50
2019-05-17T20:05:09.696Z,13.60
2019-05-17T20:07:40.933Z,13.50
2019-05-17T20:10:30.592Z,13.60
2019-05-17T20:13:19.807Z,13.60
2019-05-17T20:16:08.805Z,13.60
2019-05-17T20:18:57.799Z,13.60
2019-05-17T20:21:47.597Z,13.60
2019-05-17T20:24:36.402Z,13.60
2019-05-17T20:27:26.247Z,13.60
2019-05-17T20:30:16.711Z,13.60
2019-05-17T20:33:05.644Z,13.60
2019-05-17T20:35:54.552Z,13.60
2019-05-17T20:38:43.717Z,13.50
2019-05-17T20:41:33.035Z,13.50
2019-05-17T20:44:21.919Z,13.50
2019-05-17T20:47:11.173Z,13.50
2019-05-17T20:50:00.322Z,13.50
2019-05-17T20:52:49.472Z,13.50
2019-05-17T20:55:39.086Z,13.50
2019-05-17T20:58:28.086Z,13.50
2019-05-17T21:01:18.020Z,13.50
2019-05-17T21:04:09.052Z,13.50
2019-05-17T21:06:58.446Z,13.50
2019-05-17T21:09:47.131Z,13.50
2019-05-17T21:12:36.120Z,13.50
2019-05-17T21:15:24.955Z,13.40
2019-05-17T21:18:14.416Z,13.40
2019-05-17T21:21:04.121Z,13.40
2019-05-17T21:23:52.833Z,13.40
2019-05-17T21:26:42.462Z,13.40
2019-05-17T21:29:31.670Z,13.40
2019-05-17T21:32:20.452Z,13.40
2019-05-17T21:35:10.116Z,13.30
2019-05-17T21:37:59.696Z,13.30
2019-05-17T21:40:49.091Z,13.30
2019-05-17T21:43:38.760Z,13.30
2019-05-17T21:46:27.879Z,13.30
2019-05-17T21:49:16.869Z,13.30
2019-05-17T21:52:06.762Z,13.30
2019-05-17T21:54:56.653Z,13.30
2019-05-17T21:57:46.361Z,13.30
2019-05-17T22:01:11.157Z,13.20
2019-05-17T22:04:00.235Z,13.20
2019-05-17T22:06:49.571Z,13.20
2019-05-17T22:09:38.975Z,13.20
2019-05-17T22:12:28.138Z,13.20
2019-05-17T22:15:17.135Z,13.10
2019-05-17T22:18:06.163Z,13.10
2019-05-17T22:20:55.531Z,13.10
2019-05-17T22:23:44.850Z,13.00
2019-05-17T22:26:33.700Z,13.00
2019-05-17T22:29:22.536Z,13.00
2019-05-17T22:32:11.852Z,12.90
2019-05-17T22:35:01.237Z,12.90
2019-05-17T22:37:50.159Z,12.80
2019-05-17T22:40:39.149Z,12.80
2019-05-17T22:43:28.270Z,12.80
2019-05-17T22:46:17.078Z,12.70
2019-05-17T22:49:06.853Z,12.70
2019-05-17T22:51:55.950Z,12.60
2019-05-17T22:54:44.920Z,12.60
2019-05-17T22:57:34.455Z,12.60
2019-05-17T23:00:24.213Z,12.50
2019-05-17T23:03:13.038Z,12.50
2019-05-17T23:06:02.443Z,12.40
2019-05-17T23:08:52.150Z,12.40
2019-05-17T23:11:41.635Z,12.30
2019-05-17T23:14:30.827Z,12.30
2019-05-17T23:17:19.597Z,12.30
2019-05-17T23:20:09.604Z,12.20
2019-05-17T23:22:58.787Z,12.20
2019-05-17T23:25:47.987Z,12.20
2019-05-17T23:28:37.209Z,12.10
2019-05-17T23:31:26.469Z,12.10
2019-05-17T23:34:15.412Z,12.10
2019-05-17T23:37:04.461Z,12.10
2019-05-17T23:39:54.225Z,12.10
2019-05-17T23:42:43.360Z,12.10
2019-05-17T23:45:32.805Z,12.10
2019-05-17T23:48:21.822Z,12.10
2019-05-17T23:51:10.609Z,12.00
2019-05-17T23:53:59.356Z,11.90
2019-05-17T23:56:49.361Z,11.90
2019-05-17T23:59:38.531Z,11.80
